Time;durP1;ratioP1;P1;durP2;ratioP2;P2;SDS_P1;SDS_P2;PMS_P1;PMS_P2;Temp;Humidity;BMP_temperature;BMP_pressure;BME280_temperature;BME280_humidity;BME280_pressure;Samples;Min_cycle;Max_cycle;Signal;HPM_P1;HPM_P2
2021/05/18 00:01:46;;;;;;;;;;;12.60;90.10;;;;;;4346165;33;43702;-77
2021/05/18 00:04:19;;;;;;;;;;;12.60;90.10;;;;;;4333143;33;43661;-76
2021/05/18 00:06:52;;;;;;;;;;;12.70;90.00;;;;;;4346267;33;42931;-76
2021/05/18 00:12:14;;;;;;;;;;;12.70;90.00;;;;;;4345905;33;42878;-76
2021/05/18 00:14:43;;;;;;;;;;;12.70;90.00;;;;;;4345843;33;43640;-77
2021/05/18 00:17:10;;;;;;;;;;;12.70;90.00;;;;;;4332742;33;43731;-77
2021/05/18 00:19:43;;;;;;;;;;;12.60;90.10;;;;;;4346049;33;43691;-76
2021/05/18 00:22:13;;;;;;;;;;;12.60;90.10;;;;;;4346228;33;43732;-76
2021/05/18 00:24:45;;;;;;;;;;;12.60;90.20;;;;;;4334549;33;20001;-77
2021/05/18 00:27:19;;;;;;;;;;;12.50;90.20;;;;;;4345819;33;43482;-76
2021/05/18 00:29:48;;;;;;;;;;;12.50;90.30;;;;;;4332746;33;43837;-76
2021/05/18 00:32:17;;;;;;;;;;;12.50;90.30;;;;;;4332171;33;43640;-76
2021/05/18 00:34:57;;;;;;;;;;;12.50;90.20;;;;;;4345957;33;43698;-76
2021/05/18 00:37:30;;;;;;;;;;;12.50;90.20;;;;;;4345898;33;43723;-77
2021/05/18 00:39:57;;;;;;;;;;;12.50;90.20;;;;;;4345947;33;43776;-76
2021/05/18 00:42:30;;;;;;;;;;;12.50;90.20;;;;;;4345749;33;42541;-76
2021/05/18 00:45:02;;;;;;;;;;;12.50;90.20;;;;;;4345436;33;42502;-76
2021/05/18 00:47:32;;;;;;;;;;;12.50;90.10;;;;;;4345885;33;44151;-76
2021/05/18 00:50:00;;;;;;;;;;;12.50;90.10;;;;;;4332420;33;44191;-76
2021/05/18 00:52:30;;;;;;;;;;;12.40;90.10;;;;;;4345529;33;43085;-76
2021/05/18 00:55:19;;;;;;;;;;;12.40;90.20;;;;;;4346888;33;20062;-75
2021/05/18 01:00:35;;;;;;;;;;;12.40;90.30;;;;;;4345422;33;43705;-76
2021/05/18 01:03:06;;;;;;;;;;;12.40;90.30;;;;;;4345018;33;43742;-76
2021/05/18 01:08:24;;;;;;;;;;;12.40;90.30;;;;;;4345238;33;42514;-76
2021/05/18 01:10:51;;;;;;;;;;;12.30;90.30;;;;;;4345597;33;43021;-76
2021/05/18 01:13:21;;;;;;;;;;;12.30;90.30;;;;;;4332031;33;44218;-76
2021/05/18 01:16:09;;;;;;;;;;;12.30;90.30;;;;;;4345396;33;45721;-76
2021/05/18 01:18:37;;;;;;;;;;;12.30;90.30;;;;;;4345668;33;42835;-76
2021/05/18 01:21:08;;;;;;;;;;;12.30;90.30;;;;;;4332093;33;43767;-76
2021/05/18 01:23:35;;;;;;;;;;;12.30;90.30;;;;;;4332228;33;44223;-76
2021/05/18 01:26:03;;;;;;;;;;;12.30;90.20;;;;;;4333334;33;20010;-76
2021/05/18 01:28:30;;;;;;;;;;;12.30;90.20;;;;;;4331996;33;43242;-75
2021/05/18 01:30:57;;;;;;;;;;;12.40;90.20;;;;;;4344932;33;43658;-75
2021/05/18 01:33:27;;;;;;;;;;;12.40;90.20;;;;;;4345041;33;42875;-76
2021/05/18 01:35:57;;;;;;;;;;;12.30;90.20;;;;;;4345027;33;43761;-76
2021/05/18 01:38:35;;;;;;;;;;;12.30;90.20;;;;;;4345186;33;43824;-76
2021/05/18 01:43:52;;;;;;;;;;;12.30;90.30;;;;;;4345570;33;43723;-76
2021/05/18 01:46:20;;;;;;;;;;;12.30;90.30;;;;;;4345350;33;43068;-75
2021/05/18 01:48:58;;;;;;;;;;;12.30;90.30;;;;;;4345169;33;44203;-75
2021/05/18 01:51:32;;;;;;;;;;;12.30;90.30;;;;;;4345462;33;43008;-75
2021/05/18 01:54:03;;;;;;;;;;;12.30;90.30;;;;;;4344829;33;43742;-75
2021/05/18 01:59:23;;;;;;;;;;;12.30;90.30;;;;;;4344987;33;42870;-75
2021/05/18 02:02:00;;;;;;;;;;;12.30;90.70;;;;;;4331969;33;45806;-75
2021/05/18 02:04:30;;;;;;;;;;;12.30;90.30;;;;;;4344818;33;43702;-75
2021/05/18 02:07:03;;;;;;;;;;;12.30;90.30;;;;;;4332361;33;43830;-75
2021/05/18 02:09:30;;;;;;;;;;;12.20;90.30;;;;;;4345262;33;43689;-75
2021/05/18 02:11:57;;;;;;;;;;;12.20;90.30;;;;;;4334192;33;43095;-75
2021/05/18 02:14:33;;;;;;;;;;;12.30;90.40;;;;;;4334500;33;43762;-75
2021/05/18 02:17:41;;;;;;;;;;;12.20;90.40;;;;;;4347621;33;43647;-75
2021/05/18 02:25:17;;;;;;;;;;;12.20;90.40;;;;;;4347742;33;43694;-75
2021/05/18 02:27:51;;;;;;;;;;;12.30;90.40;;;;;;4335385;33;20036;-75
2021/05/18 02:30:24;;;;;;;;;;;12.30;90.40;;;;;;4347636;33;42878;-75
2021/05/18 02:32:52;;;;;;;;;;;12.30;90.40;;;;;;4334322;33;42192;-75
2021/05/18 02:35:19;;;;;;;;;;;12.30;90.40;;;;;;4334256;33;42894;-75
2021/05/18 02:37:53;;;;;;;;;;;12.30;90.40;;;;;;4347275;33;44276;-75
2021/05/18 02:40:24;;;;;;;;;;;12.30;90.40;;;;;;4347638;33;44938;-75
2021/05/18 02:42:57;;;;;;;;;;;12.20;90.50;;;;;;4347602;33;43808;-75
2021/05/18 02:45:31;;;;;;;;;;;12.20;90.50;;;;;;4347538;33;43761;-75
2021/05/18 02:50:51;;;;;;;;;;;12.20;90.50;;;;;;4347693;33;43597;-75
2021/05/18 02:53:21;;;;;;;;;;;12.20;90.50;;;;;;4347179;33;44072;-75
2021/05/18 02:58:19;;;;;;;;;;;12.20;90.60;;;;;;4348329;33;20391;-75
2021/05/18 03:00:46;;;;;;;;;;;12.30;90.60;;;;;;4333992;33;42762;-75
2021/05/18 03:03:16;;;;;;;;;;;12.30;90.60;;;;;;4346795;33;42424;-75
2021/05/18 03:05:43;;;;;;;;;;;12.20;90.50;;;;;;4346846;33;44961;-75
2021/05/18 03:08:18;;;;;;;;;;;12.30;90.60;;;;;;4347026;33;44230;-75
2021/05/18 03:10:54;;;;;;;;;;;12.30;90.60;;;;;;4333580;33;43394;-75
2021/05/18 03:13:24;;;;;;;;;;;12.30;90.50;;;;;;4346689;33;42551;-75
2021/05/18 03:15:51;;;;;;;;;;;12.30;90.50;;;;;;4333825;33;43833;-75
2021/05/18 03:18:21;;;;;;;;;;;12.30;90.50;;;;;;4346837;33;43704;-75
2021/05/18 03:20:51;;;;;;;;;;;12.30;90.60;;;;;;4333750;33;43784;-75
2021/05/18 03:23:21;;;;;;;;;;;12.30;90.60;;;;;;4333135;33;43070;-75
2021/05/18 03:25:55;;;;;;;;;;;12.30;90.50;;;;;;4346834;33;42998;-75
2021/05/18 03:28:22;;;;;;;;;;;12.20;90.60;;;;;;4347667;33;20044;-75
2021/05/18 03:36:14;;;;;;;;;;;12.20;90.70;;;;;;4346517;33;44612;-75
2021/05/18 03:38:48;;;;;;;;;;;12.20;90.80;;;;;;4346831;33;44220;-75
2021/05/18 03:41:28;;;;;;;;;;;12.20;90.80;;;;;;4346797;33;43790;-75
2021/05/18 03:44:05;;;;;;;;;;;12.10;90.90;;;;;;4346647;33;43301;-75
2021/05/18 04:16:51;;;;;;;;;;;12.00;91.10;;;;;;4346280;33;43012;-75
2021/05/18 04:38:36;;;;;;;;;;;12.10;91.20;;;;;;4346250;33;43762;-75
2021/05/18 04:59:50;;;;;;;;;;;12.10;91.30;;;;;;4345526;33;43698;-76
2021/05/18 05:07:46;;;;;;;;;;;12.00;91.30;;;;;;4345672;33;43686;-76
2021/05/18 05:10:19;;;;;;;;;;;12.00;91.40;;;;;;4332527;33;43697;-76
2021/05/18 05:15:44;;;;;;;;;;;12.10;91.40;;;;;;4304876;33;44288;-76
2021/05/18 05:18:13;;;;;;;;;;;12.10;91.40;;;;;;4345740;33;43490;-76
2021/05/18 05:20:40;;;;;;;;;;;12.10;91.50;;;;;;4345380;33;42931;-76
2021/05/18 05:23:13;;;;;;;;;;;12.10;91.40;;;;;;4344981;33;43207;-76
2021/05/18 05:25:40;;;;;;;;;;;12.10;91.60;;;;;;4332383;33;43486;-76
2021/05/18 05:28:08;;;;;;;;;;;12.10;91.50;;;;;;4332236;33;43781;-76
2021/05/18 05:30:35;;;;;;;;;;;12.10;91.50;;;;;;4345233;33;43752;-76
2021/05/18 05:33:02;;;;;;;;;;;12.10;91.50;;;;;;4331972;33;42911;-76
2021/05/18 05:35:35;;;;;;;;;;;12.10;91.60;;;;;;4346464;33;20382;-76
2021/05/18 05:38:05;;;;;;;;;;;12.10;91.60;;;;;;4331896;33;42939;-76
2021/05/18 05:40:52;;;;;;;;;;;12.10;91.50;;;;;;4333855;33;42468;-76
2021/05/18 05:43:25;;;;;;;;;;;12.10;91.50;;;;;;4331582;33;42610;-77
2021/05/18 05:45:57;;;;;;;;;;;12.20;91.60;;;;;;4347187;33;43035;-76
2021/05/18 05:48:30;;;;;;;;;;;12.20;91.60;;;;;;4347955;33;43450;-76
2021/05/18 05:51:02;;;;;;;;;;;12.10;91.60;;;;;;4335068;33;42432;-76
2021/05/18 05:53:32;;;;;;;;;;;12.10;91.60;;;;;;4348233;33;43201;-77
2021/05/18 05:56:05;;;;;;;;;;;12.10;91.70;;;;;;4348072;33;43707;-76
2021/05/18 05:58:32;;;;;;;;;;;12.10;91.70;;;;;;4347641;33;42196;-76
2021/05/18 06:01:05;;;;;;;;;;;12.10;91.90;;;;;;4347919;33;42825;-77
2021/05/18 06:03:33;;;;;;;;;;;12.10;91.80;;;;;;4347849;33;43024;-76
2021/05/18 06:06:00;;;;;;;;;;;12.10;91.90;;;;;;4348940;33;20453;-77
2021/05/18 06:08:37;;;;;;;;;;;12.10;91.80;;;;;;4347869;33;43099;-77
2021/05/18 06:11:19;;;;;;;;;;;12.10;91.90;;;;;;4334483;33;43749;-76
2021/05/18 06:48:58;;;;;;;;;;;12.20;91.90;;;;;;4347076;33;42701;-77
2021/05/18 06:51:28;;;;;;;;;;;12.20;91.80;;;;;;4347134;33;42528;-77
2021/05/18 06:54:00;;;;;;;;;;;12.20;91.80;;;;;;4333851;33;42577;-77
2021/05/18 06:56:34;;;;;;;;;;;12.20;91.80;;;;;;4346927;33;43698;-77
2021/05/18 07:01:34;;;;;;;;;;;12.20;91.90;;;;;;4346869;33;43820;-76
2021/05/18 07:04:09;;;;;;;;;;;12.20;91.90;;;;;;4333650;33;43038;-76
2021/05/18 07:09:09;;;;;;;;;;;12.20;91.90;;;;;;4348327;33;20005;-76
2021/05/18 07:11:38;;;;;;;;;;;12.20;92.00;;;;;;4346682;33;43667;-77
2021/05/18 07:14:07;;;;;;;;;;;12.10;91.90;;;;;;4347400;33;43071;-77
2021/05/18 07:16:36;;;;;;;;;;;12.20;91.90;;;;;;4333477;33;43753;-77
2021/05/18 07:19:06;;;;;;;;;;;12.20;91.90;;;;;;4347061;33;43018;-76
2021/05/18 07:21:35;;;;;;;;;;;12.20;91.90;;;;;;4346944;33;45024;-76
2021/05/18 07:24:09;;;;;;;;;;;12.20;91.90;;;;;;4346873;33;43824;-76
2021/05/18 07:26:40;;;;;;;;;;;12.20;91.90;;;;;;4347173;33;43021;-77
2021/05/18 07:29:07;;;;;;;;;;;12.20;91.90;;;;;;4346686;33;43427;-76
2021/05/18 07:31:34;;;;;;;;;;;12.30;91.90;;;;;;4346654;33;42917;-76
2021/05/18 07:34:07;;;;;;;;;;;12.20;91.90;;;;;;4346553;33;44905;-76
2021/05/18 07:36:37;;;;;;;;;;;12.30;92.00;;;;;;4333350;33;41943;-76
2021/05/18 07:39:05;;;;;;;;;;;12.20;92.00;;;;;;4347642;33;20001;-76
2021/05/18 07:41:35;;;;;;;;;;;12.20;92.10;;;;;;4346290;33;44828;-76
2021/05/18 07:44:05;;;;;;;;;;;12.20;92.10;;;;;;4346421;33;43447;-76
2021/05/18 07:46:32;;;;;;;;;;;12.20;92.10;;;;;;4346498;33;43777;-76
2021/05/18 07:49:43;;;;;;;;;;;12.20;92.10;;;;;;4346535;33;43666;-76
2021/05/18 08:06:01;;;;;;;;;;;12.20;92.30;;;;;;4346382;33;43726;-76
2021/05/18 08:08:30;;;;;;;;;;;12.20;92.30;;;;;;4345854;33;43668;-76
2021/05/18 08:11:03;;;;;;;;;;;12.20;92.30;;;;;;4347080;33;20043;-76
2021/05/18 08:13:56;;;;;;;;;;;12.20;92.30;;;;;;4335224;33;44002;-76
2021/05/18 08:16:56;;;;;;;;;;;12.20;92.30;;;;;;4332454;33;42955;-76
2021/05/18 10:36:27;;;;;;;;;;;12.80;92.20;;;;;;4347502;33;43745;-75
2021/05/18 10:39:15;;;;;;;;;;;12.80;92.10;;;;;;4347162;33;43150;-75
2021/05/18 10:41:44;;;;;;;;;;;12.80;92.10;;;;;;4347382;33;42933;-75
2021/05/18 10:44:12;;;;;;;;;;;12.90;92.10;;;;;;4347536;33;43079;-75
2021/05/18 10:46:47;;;;;;;;;;;12.90;92.00;;;;;;4348639;33;20001;-75
2021/05/18 10:49:18;;;;;;;;;;;12.90;92.00;;;;;;4347546;33;43895;-75
2021/05/18 10:51:50;;;;;;;;;;;12.90;92.00;;;;;;4333884;33;42903;-75
2021/05/18 10:54:18;;;;;;;;;;;12.90;92.00;;;;;;4333919;33;44781;-75
2021/05/18 10:57:01;;;;;;;;;;;12.90;91.90;;;;;;4347155;33;43619;-75
2021/05/18 10:59:51;;;;;;;;;;;12.90;92.20;;;;;;4334014;33;43153;-75
2021/05/18 11:02:29;;;;;;;;;;;12.90;91.80;;;;;;4333665;33;44821;-75
2021/05/18 11:04:57;;;;;;;;;;;12.90;91.80;;;;;;4347089;33;43734;-75
2021/05/18 11:07:31;;;;;;;;;;;12.90;91.90;;;;;;4333920;33;43040;-75
2021/05/18 11:10:02;;;;;;;;;;;12.90;92.00;;;;;;4347281;33;43071;-75
2021/05/18 11:12:29;;;;;;;;;;;13.00;92.00;;;;;;4333723;33;43822;-75
2021/05/18 11:14:56;;;;;;;;;;;13.10;92.00;;;;;;4346746;33;43860;-75
2021/05/18 11:17:26;;;;;;;;;;;13.10;92.00;;;;;;4347967;33;20043;-75
2021/05/18 11:19:59;;;;;;;;;;;13.10;91.90;;;;;;4346906;33;42525;-75
2021/05/18 11:25:15;;;;;;;;;;;13.20;91.80;;;;;;4347106;33;43052;-75
2021/05/18 11:27:45;;;;;;;;;;;13.10;91.70;;;;;;4333417;33;43574;-75
2021/05/18 11:30:25;;;;;;;;;;;13.10;91.70;;;;;;4346804;33;43010;-75
2021/05/18 11:32:55;;;;;;;;;;;13.20;91.60;;;;;;4346801;33;44175;-75
2021/05/18 11:35:22;;;;;;;;;;;13.20;91.60;;;;;;4333359;33;43644;-75
2021/05/18 11:38:02;;;;;;;;;;;13.20;91.60;;;;;;4346376;33;43716;-75
2021/05/18 11:40:37;;;;;;;;;;;13.20;91.60;;;;;;4333315;33;44261;-75
2021/05/18 11:43:23;;;;;;;;;;;13.20;91.60;;;;;;4333110;33;43763;-75
2021/05/18 11:45:52;;;;;;;;;;;13.20;91.50;;;;;;4333474;33;43764;-75
2021/05/18 11:48:20;;;;;;;;;;;13.20;91.40;;;;;;4347692;33;20401;-76
2021/05/18 11:51:02;;;;;;;;;;;13.30;91.40;;;;;;4333089;33;45818;-76
2021/05/18 11:53:31;;;;;;;;;;;13.30;91.40;;;;;;4346497;33;43711;-76
2021/05/18 11:55:59;;;;;;;;;;;13.30;91.30;;;;;;4346493;33;43111;-76
2021/05/18 11:58:30;;;;;;;;;;;13.30;91.20;;;;;;4345924;33;44013;-76
2021/05/18 12:01:09;;;;;;;;;;;13.30;91.20;;;;;;4333083;33;43709;-76
2021/05/18 12:03:36;;;;;;;;;;;13.30;91.10;;;;;;4346158;33;42526;-76
2021/05/18 12:06:04;;;;;;;;;;;13.30;91.10;;;;;;4346206;33;42181;-76
2021/05/18 12:08:35;;;;;;;;;;;13.40;91.20;;;;;;4346116;33;42884;-76
2021/05/18 12:11:18;;;;;;;;;;;13.40;91.10;;;;;;4333638;33;44815;-76
2021/05/18 12:13:49;;;;;;;;;;;13.40;91.00;;;;;;4346000;33;43389;-76
2021/05/18 12:16:19;;;;;;;;;;;13.40;91.00;;;;;;4346201;33;42890;-76
2021/05/18 12:18:53;;;;;;;;;;;13.40;90.90;;;;;;4347043;33;20316;-76
2021/05/18 12:21:27;;;;;;;;;;;13.40;90.80;;;;;;4346314;33;43683;-76
2021/05/18 12:24:24;;;;;;;;;;;13.40;90.70;;;;;;4333062;33;43494;-76
2021/05/18 12:26:57;;;;;;;;;;;13.40;90.80;;;;;;4345009;33;43035;-76
2021/05/18 12:29:25;;;;;;;;;;;13.40;90.70;;;;;;4346132;33;46005;-75
2021/05/18 12:31:54;;;;;;;;;;;13.50;90.80;;;;;;4345634;33;42939;-75
2021/05/18 12:34:28;;;;;;;;;;;13.50;90.60;;;;;;4346020;33;43190;-75
2021/05/18 12:36:56;;;;;;;;;;;13.50;90.70;;;;;;4332726;33;43721;-75
2021/05/18 12:39:23;;;;;;;;;;;13.50;90.60;;;;;;4332512;33;43141;-75
2021/05/18 12:41:53;;;;;;;;;;;13.60;90.60;;;;;;4345807;33;43139;-75
2021/05/18 12:44:24;;;;;;;;;;;13.60;90.60;;;;;;4345446;33;43008;-75
2021/05/18 12:46:52;;;;;;;;;;;13.60;90.50;;;;;;4332356;33;44172;-75
2021/05/18 12:49:26;;;;;;;;;;;13.70;90.50;;;;;;4346733;33;20001;-75
2021/05/18 12:52:00;;;;;;;;;;;13.70;90.50;;;;;;4332589;33;42966;-75
2021/05/18 12:54:48;;;;;;;;;;;13.70;90.40;;;;;;4344983;33;42838;-75
2021/05/18 12:57:17;;;;;;;;;;;13.80;90.40;;;;;;4345548;33;44440;-74
2021/05/18 13:00:02;;;;;;;;;;;13.80;90.30;;;;;;4332326;33;42162;-75
2021/05/18 13:02:34;;;;;;;;;;;13.90;90.00;;;;;;4345215;33;43713;-75
2021/05/18 13:05:05;;;;;;;;;;;14.00;89.80;;;;;;4345221;33;42449;-74
2021/05/18 13:07:33;;;;;;;;;;;14.00;89.30;;;;;;4345267;33;43707;-74
2021/05/18 13:10:13;;;;;;;;;;;14.10;89.80;;;;;;4332110;33;42498;-74
2021/05/18 13:12:40;;;;;;;;;;;14.20;89.60;;;;;;4345433;33;42629;-74
2021/05/18 13:15:13;;;;;;;;;;;14.20;89.20;;;;;;4345400;33;42133;-74
2021/05/18 13:17:56;;;;;;;;;;;14.20;89.40;;;;;;4345144;33;44083;-74
2021/05/18 13:20:54;;;;;;;;;;;14.30;89.40;;;;;;4346368;33;20040;-74
2021/05/18 13:28:41;;;;;;;;;;;14.40;88.10;;;;;;4345557;33;43007;-74
2021/05/18 13:31:11;;;;;;;;;;;14.40;88.40;;;;;;4332103;33;43013;-74
2021/05/18 13:33:38;;;;;;;;;;;14.50;88.40;;;;;;4332033;33;43091;-74
2021/05/18 13:36:06;;;;;;;;;;;14.50;88.40;;;;;;4345295;33;43038;-75
2021/05/18 13:38:36;;;;;;;;;;;14.60;88.30;;;;;;4331745;33;44203;-75
2021/05/18 13:41:06;;;;;;;;;;;14.60;86.90;;;;;;4345439;33;44317;-74
2021/05/18 13:43:36;;;;;;;;;;;14.60;87.60;;;;;;4331932;33;43673;-75
2021/05/18 13:46:03;;;;;;;;;;;14.60;87.60;;;;;;4331920;33;43844;-74
2021/05/18 13:48:33;;;;;;;;;;;14.60;87.40;;;;;;4332173;33;43349;-75
2021/05/18 13:51:03;;;;;;;;;;;14.70;87.00;;;;;;4345916;33;20001;-75
2021/05/18 13:53:49;;;;;;;;;;;14.70;87.60;;;;;;4345421;33;43882;-75
2021/05/18 13:56:20;;;;;;;;;;;14.70;87.40;;;;;;4345351;33;43706;-75
2021/05/18 13:58:51;;;;;;;;;;;14.80;87.20;;;;;;4345030;33;43684;-75
2021/05/18 14:01:18;;;;;;;;;;;14.80;87.00;;;;;;4344819;33;44207;-75
2021/05/18 14:03:53;;;;;;;;;;;14.80;86.40;;;;;;4344783;33;42556;-75
2021/05/18 14:06:21;;;;;;;;;;;14.80;86.70;;;;;;4332508;33;43113;-75
2021/05/18 14:08:48;;;;;;;;;;;14.80;86.70;;;;;;4334568;33;44301;-75
2021/05/18 14:11:19;;;;;;;;;;;14.80;86.80;;;;;;4347805;33;42907;-75
2021/05/18 14:13:47;;;;;;;;;;;14.80;87.50;;;;;;4347963;33;43086;-75
2021/05/18 14:16:19;;;;;;;;;;;14.80;86.50;;;;;;4347549;33;42828;-76
2021/05/18 14:18:50;;;;;;;;;;;14.80;86.60;;;;;;4334787;33;44184;-75
2021/05/18 14:21:26;;;;;;;;;;;14.90;86.70;;;;;;4335462;33;20095;-76
2021/05/18 14:24:09;;;;;;;;;;;14.90;86.00;;;;;;4334617;33;43064;-75
2021/05/18 14:26:38;;;;;;;;;;;14.90;85.50;;;;;;4347594;33;43644;-75
2021/05/18 14:29:05;;;;;;;;;;;14.80;85.90;;;;;;4347703;33;43104;-76
2021/05/18 14:31:35;;;;;;;;;;;14.90;85.90;;;;;;4347679;33;43009;-75
2021/05/18 14:34:03;;;;;;;;;;;14.90;85.70;;;;;;4334438;33;42140;-76
2021/05/18 14:36:32;;;;;;;;;;;14.90;85.10;;;;;;4347551;33;43749;-76
2021/05/18 14:39:07;;;;;;;;;;;14.90;85.20;;;;;;4347725;33;43361;-76
2021/05/18 14:44:25;;;;;;;;;;;15.00;85.00;;;;;;4347622;33;43859;-75
2021/05/18 14:55:09;;;;;;;;;;;15.00;84.40;;;;;;4347435;33;43057;-75
2021/05/18 14:57:37;;;;;;;;;;;15.00;83.70;;;;;;4334058;33;42102;-75
2021/05/18 15:00:07;;;;;;;;;;;15.00;84.50;;;;;;4346807;33;42371;-75
2021/05/18 15:02:37;;;;;;;;;;;15.00;83.60;;;;;;4346561;33;43676;-76
2021/05/18 15:05:08;;;;;;;;;;;15.10;83.90;;;;;;4347074;33;42880;-76
2021/05/18 15:07:35;;;;;;;;;;;15.10;83.60;;;;;;4347483;33;43857;-76
2021/05/18 15:10:04;;;;;;;;;;;15.10;83.70;;;;;;4346949;33;46107;-75
2021/05/18 15:12:31;;;;;;;;;;;15.20;81.40;;;;;;4333428;33;44522;-76
2021/05/18 15:14:58;;;;;;;;;;;15.10;83.40;;;;;;4347052;33;43096;-76
2021/05/18 15:17:25;;;;;;;;;;;15.20;83.50;;;;;;4346618;33;43112;-76
2021/05/18 15:19:54;;;;;;;;;;;15.10;83.10;;;;;;4333297;33;42860;-76
2021/05/18 15:22:28;;;;;;;;;;;15.10;83.00;;;;;;4347944;33;20320;-76
2021/05/18 15:24:55;;;;;;;;;;;15.10;83.10;;;;;;4346944;33;43019;-76
2021/05/18 15:27:25;;;;;;;;;;;15.10;82.80;;;;;;4346500;33;43668;-76
2021/05/18 15:29:55;;;;;;;;;;;15.10;82.80;;;;;;4333546;33;42875;-76
2021/05/18 15:32:23;;;;;;;;;;;15.10;82.50;;;;;;4346819;33;42540;-76
2021/05/18 15:34:56;;;;;;;;;;;15.10;83.20;;;;;;4346660;33;43718;-76
2021/05/18 15:37:23;;;;;;;;;;;15.10;83.40;;;;;;4333598;33;43656;-76
2021/05/18 15:39:52;;;;;;;;;;;15.10;83.40;;;;;;4346189;33;45185;-77
2021/05/18 15:42:22;;;;;;;;;;;15.10;83.50;;;;;;4333163;33;42921;-77
2021/05/18 15:44:51;;;;;;;;;;;15.10;83.40;;;;;;4346548;33;44179;-77
2021/05/18 15:47:19;;;;;;;;;;;15.10;83.40;;;;;;4333243;33;42935;-77
2021/05/18 15:49:47;;;;;;;;;;;15.10;83.40;;;;;;4346064;33;42874;-77
2021/05/18 15:52:20;;;;;;;;;;;15.10;83.10;;;;;;4333124;33;43553;-77
2021/05/18 15:54:47;;;;;;;;;;;15.10;83.00;;;;;;4334491;33;20001;-77
2021/05/18 15:57:16;;;;;;;;;;;15.10;83.10;;;;;;4333021;33;43018;-77
2021/05/18 15:59:53;;;;;;;;;;;15.10;83.00;;;;;;4346418;33;43792;-77
2021/05/18 16:02:23;;;;;;;;;;;15.10;82.80;;;;;;4332764;33;44364;-77
2021/05/18 16:04:51;;;;;;;;;;;15.20;82.90;;;;;;4346588;33;43770;-77
2021/05/18 16:07:20;;;;;;;;;;;15.20;82.70;;;;;;4346480;33;43062;-77
2021/05/18 16:09:48;;;;;;;;;;;15.20;82.70;;;;;;4346150;33;43014;-78
2021/05/18 16:12:15;;;;;;;;;;;15.20;82.50;;;;;;4333050;33;44066;-77
2021/05/18 16:14:47;;;;;;;;;;;15.20;82.20;;;;;;4332920;33;43643;-78
2021/05/18 16:17:20;;;;;;;;;;;15.20;82.60;;;;;;4346159;33;44990;-78
2021/05/18 16:19:48;;;;;;;;;;;15.30;82.50;;;;;;4333292;33;43726;-77
2021/05/18 16:22:18;;;;;;;;;;;15.30;82.70;;;;;;4333254;33;44971;-78
2021/05/18 16:24:46;;;;;;;;;;;15.30;82.20;;;;;;4332873;33;44809;-78
2021/05/18 16:27:16;;;;;;;;;;;15.30;82.30;;;;;;4347230;33;20335;-77
2021/05/18 16:29:47;;;;;;;;;;;15.30;81.80;;;;;;4346057;33;43024;-77
2021/05/18 16:32:14;;;;;;;;;;;15.30;81.20;;;;;;4346188;33;43780;-78
2021/05/18 16:34:46;;;;;;;;;;;15.30;81.40;;;;;;4345838;33;43711;-78
2021/05/18 16:37:16;;;;;;;;;;;15.30;81.40;;;;;;4332671;33;42168;-78
2021/05/18 16:39:47;;;;;;;;;;;15.30;81.00;;;;;;4345720;33;43654;-78
2021/05/18 16:42:16;;;;;;;;;;;15.30;81.10;;;;;;4345808;33;43684;-78
2021/05/18 16:44:45;;;;;;;;;;;15.30;80.80;;;;;;4345478;33;43106;-78
2021/05/18 16:47:13;;;;;;;;;;;15.30;80.50;;;;;;4345501;33;43644;-78
2021/05/18 16:49:45;;;;;;;;;;;15.30;80.30;;;;;;4332621;33;43025;-77
2021/05/18 16:52:12;;;;;;;;;;;15.30;80.30;;;;;;4345761;33;42125;-77
2021/05/18 16:54:40;;;;;;;;;;;15.30;80.10;;;;;;4345496;33;42955;-77
2021/05/18 16:57:07;;;;;;;;;;;15.30;80.40;;;;;;4345273;33;43073;-78
2021/05/18 16:59:35;;;;;;;;;;;15.30;79.90;;;;;;4346598;33;20001;-77
2021/05/18 17:02:05;;;;;;;;;;;15.30;80.00;;;;;;4332357;33;42752;-77
2021/05/18 17:04:32;;;;;;;;;;;15.30;80.10;;;;;;4345722;33;43711;-78
2021/05/18 17:07:03;;;;;;;;;;;15.30;80.00;;;;;;4345623;33;43878;-78
2021/05/18 17:09:30;;;;;;;;;;;15.30;79.60;;;;;;4345792;33;43107;-78
2021/05/18 17:12:02;;;;;;;;;;;15.30;79.20;;;;;;4345197;33;42558;-78
2021/05/18 17:14:33;;;;;;;;;;;15.40;79.10;;;;;;4345697;33;45804;-78
2021/05/18 17:17:00;;;;;;;;;;;15.30;79.00;;;;;;4345296;33;42496;-79
2021/05/18 17:19:27;;;;;;;;;;;15.30;79.10;;;;;;4345332;33;42501;-78
2021/05/18 17:21:57;;;;;;;;;;;15.40;78.90;;;;;;4345380;33;42896;-78
2021/05/18 17:24:24;;;;;;;;;;;15.40;78.90;;;;;;4331902;33;42553;-78
2021/05/18 17:26:55;;;;;;;;;;;15.30;78.40;;;;;;4345264;33;43255;-79
2021/05/18 17:29:24;;;;;;;;;;;15.30;78.30;;;;;;4345497;33;44771;-78
2021/05/18 17:31:51;;;;;;;;;;;15.40;78.20;;;;;;4346258;33;20044;-78
2021/05/18 17:34:22;;;;;;;;;;;15.40;78.40;;;;;;4332294;33;43736;-78
2021/05/18 17:36:50;;;;;;;;;;;15.40;78.40;;;;;;4345151;33;43694;-78
2021/05/18 17:39:18;;;;;;;;;;;15.40;78.00;;;;;;4331671;33;44902;-78
2021/05/18 17:41:45;;;;;;;;;;;15.40;77.90;;;;;;4333356;33;45645;-78
2021/05/18 17:44:13;;;;;;;;;;;15.40;77.40;;;;;;4334446;33;42103;-78
2021/05/18 17:46:40;;;;;;;;;;;15.40;77.20;;;;;;4334981;33;43482;-78
2021/05/18 17:49:08;;;;;;;;;;;15.40;77.00;;;;;;4334918;33;43243;-78
2021/05/18 17:51:35;;;;;;;;;;;15.40;77.00;;;;;;4334633;33;44266;-78
2021/05/18 17:54:05;;;;;;;;;;;15.40;76.80;;;;;;4347913;33;43629;-78
2021/05/18 17:56:32;;;;;;;;;;;15.40;76.80;;;;;;4335024;33;43201;-78
2021/05/18 17:58:59;;;;;;;;;;;15.40;76.50;;;;;;4347971;33;42464;-78
2021/05/18 18:01:29;;;;;;;;;;;15.40;76.50;;;;;;4347841;33;45763;-78
2021/05/18 18:03:56;;;;;;;;;;;15.40;76.30;;;;;;4335674;33;20009;-78
2021/05/18 18:06:26;;;;;;;;;;;15.40;76.20;;;;;;4347748;33;42182;-78
2021/05/18 18:08:56;;;;;;;;;;;15.40;76.10;;;;;;4347739;33;43669;-78
2021/05/18 18:11:23;;;;;;;;;;;15.40;75.80;;;;;;4334644;33;45669;-78
2021/05/18 18:13:50;;;;;;;;;;;15.30;75.80;;;;;;4347933;33;43668;-78
2021/05/18 18:16:18;;;;;;;;;;;15.40;75.40;;;;;;4347796;33;43536;-78
2021/05/18 18:18:49;;;;;;;;;;;15.40;75.40;;;;;;4347450;33;43679;-79
2021/05/18 18:21:16;;;;;;;;;;;15.30;75.10;;;;;;4334698;33;43192;-79
2021/05/18 18:23:44;;;;;;;;;;;15.30;75.00;;;;;;4334369;33;42871;-78
2021/05/18 18:26:13;;;;;;;;;;;15.40;75.10;;;;;;4334378;33;42523;-78
2021/05/18 18:28:40;;;;;;;;;;;15.40;75.00;;;;;;4334352;33;42779;-78
2021/05/18 18:31:07;;;;;;;;;;;15.30;75.20;;;;;;4333982;33;43148;-78
2021/05/18 18:33:34;;;;;;;;;;;15.30;75.60;;;;;;4347513;33;43763;-78
2021/05/18 18:36:07;;;;;;;;;;;15.20;75.90;;;;;;4348866;33;19993;-78
2021/05/18 18:38:35;;;;;;;;;;;15.20;76.10;;;;;;4334311;33;42930;-78
2021/05/18 18:41:02;;;;;;;;;;;15.10;76.30;;;;;;4347369;33;43655;-78
2021/05/18 18:43:29;;;;;;;;;;;15.10;76.50;;;;;;4347349;33;45784;-78
2021/05/18 18:46:00;;;;;;;;;;;15.10;76.70;;;;;;4333917;33;43596;-78
2021/05/18 18:48:30;;;;;;;;;;;15.10;76.80;;;;;;4334147;33;42115;-79
2021/05/18 18:51:03;;;;;;;;;;;15.10;77.10;;;;;;4347198;33;43853;-78
2021/05/18 18:53:46;;;;;;;;;;;15.00;77.00;;;;;;4333221;33;43717;-78
2021/05/18 18:56:14;;;;;;;;;;;15.00;77.30;;;;;;4334298;33;44372;-78
2021/05/18 18:58:45;;;;;;;;;;;14.90;77.50;;;;;;4346941;33;45774;-78
2021/05/18 19:01:12;;;;;;;;;;;14.90;77.70;;;;;;4640566;27;44420;-79
2021/05/18 19:03:56;;;;;;;;;;;14.90;77.60;;;;;;4346493;33;41047;-78
2021/05/18 19:06:38;;;;;;;;;;;14.80;77.80;;;;;;4348273;33;20005;-78
2021/05/18 19:14:27;;;;;;;;;;;14.80;78.10;;;;;;4347321;33;43613;-78
2021/05/18 19:16:54;;;;;;;;;;;14.80;78.10;;;;;;4333774;33;45031;-78
2021/05/18 19:19:21;;;;;;;;;;;14.80;78.20;;;;;;4346716;33;44321;-78
2021/05/18 19:21:51;;;;;;;;;;;14.80;78.30;;;;;;4346773;33;43646;-78
2021/05/18 19:24:23;;;;;;;;;;;14.80;78.30;;;;;;4346958;33;43596;-78
2021/05/18 19:26:50;;;;;;;;;;;14.70;78.30;;;;;;4333586;33;42595;-78
2021/05/18 19:29:18;;;;;;;;;;;14.70;78.50;;;;;;4346533;33;42533;-78
2021/05/18 19:31:45;;;;;;;;;;;14.70;78.50;;;;;;4346747;33;43719;-78
2021/05/18 19:34:26;;;;;;;;;;;14.70;78.60;;;;;;4346740;33;43107;-78
2021/05/18 19:37:04;;;;;;;;;;;14.70;78.70;;;;;;4348047;33;20044;-78
2021/05/18 19:43:05;;;;;;;;;;;14.60;78.80;;;;;;4346491;33;42492;-78
2021/05/18 19:48:05;;;;;;;;;;;14.50;78.90;;;;;;4346651;33;42590;-78
2021/05/18 19:50:35;;;;;;;;;;;14.60;79.00;;;;;;4346487;33;42824;-78
2021/05/18 19:53:06;;;;;;;;;;;14.50;78.90;;;;;;4346255;33;45026;-78
2021/05/18 20:15:08;;;;;;;;;;;14.30;79.10;;;;;;4346289;33;43665;-77
2021/05/18 20:20:09;;;;;;;;;;;14.30;79.30;;;;;;4345978;33;43609;-77
2021/05/18 20:22:39;;;;;;;;;;;14.40;79.10;;;;;;4345980;33;43624;-77
2021/05/18 20:25:07;;;;;;;;;;;14.30;78.90;;;;;;4346017;33;43101;-77
2021/05/18 20:27:34;;;;;;;;;;;14.20;79.10;;;;;;4332788;33;42673;-78
2021/05/18 20:30:06;;;;;;;;;;;14.10;79.00;;;;;;4345701;33;43584;-77